Columbus, Ohio
Traffic Map
Current Weather Conditions
Columbus, Ohio
Few Clouds
Few Clouds

Feels Like: 7°
Wind Chill: Ceiling: Unl
Heat Index: Visibility: 10mi
Dew Point: Wind: 3mph
Humidity: 74% Direction: 330° (NNW)
Pressure: 30.15in Gusts: 0mph
Raw Report DataKCMH 301351Z 33003KT 10SM FEW048 07/03 A3015 RMK AO2 SLP212 T00720028
Traffic Incident Summary
Active as of:
Severity:
Category:
InformationThere was an issue retrieving the traffic information for this location. Please try a different location or try again shortly.
Advertisements
Track Severe Weather on mobile